Bluefield, West Virginia
Current Conditions -  °F | °C
As of 3:52 PM on Sunday 23 Nov 2014 (Local Time) from KBLF Reporting Station
Light Rain Light Rain  
Wind Chill: 51°   Ceiling: 1100
Heat Index: 51°   Visibility: 9mi
Dew Point: 45°   Wind: 12mph
Humidity: 80%   Direction: 130°SE
Pressure: 29.9"   Gusts: 30mph
Location:  37.27°N, 81.22°W
Report Text: KBLF 232052Z AUTO 13010G26KT 110V170 9SM -RA BKN011 BKN042 OVC095 11/07 A2990 RMK AO2 PK WND 16031/2036 RAE04B40 PRESFR SLP117 P0001 60002 T01060072 56040
Loading
Personal Weather Stations






























Interactive Weather Map New forecast layout! Learn more

10-Day Weather Forecast

Advertisements
Track Severe Weather on mobile